Time;durP1;ratioP1;P1;durP2;ratioP2;P2;SDS_P1;SDS_P2;PMS_P1;PMS_P2;Temp;Humidity;BMP_temperature;BMP_pressure;BME280_temperature;BME280_humidity;BME280_pressure;Samples;Min_cycle;Max_cycle;Signal;HPM_P1;HPM_P2
2022/03/12 00:01:47;;;;;;;22.27;12.55;;;-1.40;95.60;;;;;;5046928;28;20223;-88
2022/03/12 00:04:15;;;;;;;17.95;11.07;;;-1.40;95.70;;;;;;5053032;28;20245;-89
2022/03/12 00:06:42;;;;;;;29.95;13.95;;;-1.50;95.90;;;;;;5054750;28;20370;-90
2022/03/12 00:09:10;;;;;;;25.40;11.98;;;-1.50;96.00;;;;;;5051814;28;20192;-89
2022/03/12 00:11:47;;;;;;;22.55;11.13;;;-1.50;96.00;;;;;;5053911;28;20216;-90
2022/03/12 00:14:15;;;;;;;25.58;13.50;;;-1.30;95.80;;;;;;5056222;28;20210;-91
2022/03/12 00:16:44;;;;;;;20.00;12.20;;;-1.40;95.80;;;;;;5048094;28;20207;-86
2022/03/12 00:19:11;;;;;;;23.83;11.85;;;-1.40;95.80;;;;;;5042778;28;20205;-88
2022/03/12 00:21:42;;;;;;;20.83;12.63;;;-1.50;96.20;;;;;;5054389;28;20502;-86
2022/03/12 00:24:12;;;;;;;20.23;12.32;;;-1.60;96.50;;;;;;5059148;28;20216;-88
2022/03/12 00:26:40;;;;;;;19.15;12.25;;;-1.70;96.60;;;;;;5050814;28;20196;-88
2022/03/12 00:29:14;;;;;;;21.48;13.02;;;-1.60;96.50;;;;;;5060949;28;20508;-88
2022/03/12 00:31:46;;;;;;;22.13;13.55;;;-1.70;96.70;;;;;;5049242;28;20254;-83
2022/03/12 00:34:14;;;;;;;21.60;12.25;;;-1.70;97.00;;;;;;5057064;28;20211;-88
2022/03/12 00:36:42;;;;;;;20.85;12.82;;;-1.90;97.10;;;;;;5059755;28;20207;-84
2022/03/12 00:39:14;;;;;;;23.80;14.43;;;-1.80;97.70;;;;;;5055430;28;20267;-84
2022/03/12 00:41:42;;;;;;;23.17;11.80;;;-2.00;98.30;;;;;;5050628;28;20206;-84
2022/03/12 00:44:17;;;;;;;16.95;10.95;;;-2.00;98.50;;;;;;5060021;28;20231;-84
2022/03/12 00:46:46;;;;;;;20.13;12.05;;;-2.00;98.50;;;;;;5054802;28;20199;-85
2022/03/12 00:49:13;;;;;;;24.70;13.20;;;-2.10;98.70;;;;;;5053351;28;20202;-84
2022/03/12 00:51:41;;;;;;;22.00;13.07;;;-2.00;99.00;;;;;;5061396;28;20218;-85
2022/03/12 00:54:09;;;;;;;30.60;14.40;;;-2.00;99.10;;;;;;5054851;28;20204;-84
2022/03/12 00:56:39;;;;;;;23.38;13.13;;;-2.00;99.40;;;;;;5047952;28;20199;-84
2022/03/12 00:59:08;;;;;;;23.58;12.80;;;-1.90;99.50;;;;;;5061594;28;20214;-85
2022/03/12 01:01:35;;;;;;;19.23;11.88;;;-1.90;99.50;;;;;;5058323;28;20204;-87
2022/03/12 01:04:03;;;;;;;26.17;15.60;;;-2.10;99.60;;;;;;5053149;28;20526;-84
2022/03/12 01:06:33;;;;;;;29.35;15.75;;;-2.20;99.90;;;;;;5049133;28;20383;-86
2022/03/12 01:09:01;;;;;;;24.17;12.77;;;-2.20;99.90;;;;;;5065418;28;20501;-84
2022/03/12 01:11:28;;;;;;;23.23;14.90;;;-2.30;99.90;;;;;;5054982;28;20202;-83
2022/03/12 01:13:56;;;;;;;28.60;13.98;;;-2.30;99.90;;;;;;5057415;28;20232;-84
2022/03/12 01:16:23;;;;;;;23.52;12.35;;;-2.30;99.90;;;;;;5047002;28;20203;-84
2022/03/12 01:18:51;;;;;;;31.17;14.20;;;-2.30;99.90;;;;;;5066173;28;20234;-84
2022/03/12 01:21:20;;;;;;;22.92;14.93;;;-2.20;99.90;;;;;;5054289;28;20199;-86
2022/03/12 01:23:48;;;;;;;29.95;14.63;;;-2.20;99.90;;;;;;5056318;28;20231;-85
2022/03/12 01:26:18;;;;;;;27.60;15.90;;;-2.30;99.90;;;;;;5053170;28;20209;-83
2022/03/12 01:28:46;;;;;;;22.55;13.63;;;-2.20;99.90;;;;;;5056587;28;20200;-85
2022/03/12 01:31:15;;;;;;;25.42;13.43;;;-2.30;99.90;;;;;;5061302;28;20209;-84
2022/03/12 01:33:43;;;;;;;31.38;15.57;;;-2.40;99.90;;;;;;5050060;28;20199;-85
2022/03/12 01:36:11;;;;;;;20.65;14.55;;;-2.40;99.90;;;;;;5058052;28;20206;-83
2022/03/12 01:38:53;;;;;;;22.73;14.57;;;-2.30;99.90;;;;;;5055074;28;20238;-84
2022/03/12 01:41:27;;;;;;;31.95;14.60;;;-2.30;99.90;;;;;;5049127;28;20196;-85
2022/03/12 01:43:57;;;;;;;23.52;13.85;;;-2.30;99.90;;;;;;5049513;28;20228;-86
2022/03/12 01:46:34;;;;;;;18.38;12.63;;;-2.40;99.90;;;;;;5056486;28;20212;-86
2022/03/12 01:49:23;;;;;;;23.75;14.10;;;-2.30;99.90;;;;;;5055790;28;20203;-85
2022/03/12 01:51:54;;;;;;;24.85;14.20;;;-2.30;99.90;;;;;;5048944;28;20204;-84
2022/03/12 01:54:25;;;;;;;18.63;12.27;;;-2.30;99.90;;;;;;5043957;28;20493;-82
2022/03/12 01:56:55;;;;;;;21.23;12.15;;;-2.30;99.90;;;;;;5042663;28;20390;-83
2022/03/12 01:59:23;;;;;;;21.92;13.77;;;-2.20;99.90;;;;;;5049190;28;20211;-84
2022/03/12 02:01:53;;;;;;;30.60;13.35;;;-2.30;99.90;;;;;;5055571;28;20204;-84
2022/03/12 02:04:22;;;;;;;31.17;15.55;;;-2.20;99.90;;;;;;5061042;28;20260;-84
2022/03/12 02:06:52;;;;;;;20.38;12.95;;;-2.20;99.90;;;;;;5052343;28;20204;-84
2022/03/12 02:09:21;;;;;;;20.55;13.43;;;-2.30;99.90;;;;;;5049567;28;20337;-84
2022/03/12 02:11:51;;;;;;;19.98;12.82;;;-2.40;99.90;;;;;;5057155;28;20210;-84
2022/03/12 02:14:25;;;;;;;18.40;12.85;;;-2.40;99.90;;;;;;5056266;28;20206;-85
2022/03/12 02:17:11;;;;;;;20.98;14.85;;;-2.40;99.90;;;;;;5052425;28;20196;-84
2022/03/12 02:19:40;;;;;;;16.17;10.55;;;-2.40;99.90;;;;;;5049137;28;20208;-85
2022/03/12 02:22:15;;;;;;;29.48;13.48;;;-2.50;99.90;;;;;;5053940;28;20199;-84
2022/03/12 02:24:43;;;;;;;18.80;12.23;;;-2.50;99.90;;;;;;5048591;28;20219;-85
2022/03/12 02:27:10;;;;;;;22.27;12.70;;;-2.60;99.90;;;;;;5057213;28;20250;-85
2022/03/12 02:29:40;;;;;;;20.73;13.73;;;-2.40;99.90;;;;;;5054391;28;20222;-84
2022/03/12 02:32:10;;;;;;;20.38;11.80;;;-2.60;99.90;;;;;;5051357;28;20434;-84
2022/03/12 02:34:46;;;;;;;20.20;12.98;;;-2.50;99.90;;;;;;5054952;28;20202;-85
2022/03/12 02:37:30;;;;;;;24.35;14.90;;;-2.50;99.90;;;;;;5049110;28;20195;-84
2022/03/12 02:39:58;;;;;;;21.00;12.13;;;-2.50;99.90;;;;;;5046952;28;20398;-84
2022/03/12 02:42:31;;;;;;;19.40;12.77;;;-2.60;99.90;;;;;;5056413;28;20217;-84
2022/03/12 02:45:00;;;;;;;23.45;15.30;;;-2.60;99.90;;;;;;5056083;28;20219;-85
2022/03/12 02:47:31;;;;;;;24.33;14.23;;;-2.70;99.90;;;;;;5051796;28;20215;-84
2022/03/12 02:50:04;;;;;;;24.67;13.13;;;-2.70;99.90;;;;;;5053707;28;20199;-84
2022/03/12 02:52:32;;;;;;;23.50;12.90;;;-2.80;99.90;;;;;;5052857;28;20214;-85
2022/03/12 02:55:00;;;;;;;29.83;13.73;;;-2.70;99.90;;;;;;5039751;28;20417;-84
2022/03/12 02:57:29;;;;;;;25.88;14.05;;;-2.80;99.90;;;;;;5054240;28;20203;-84
2022/03/12 03:00:06;;;;;;;18.48;12.88;;;-2.80;99.90;;;;;;5054546;28;20212;-84
2022/03/12 03:02:41;;;;;;;20.33;12.98;;;-2.70;99.90;;;;;;5061044;28;20218;-83
2022/03/12 03:05:16;;;;;;;21.00;11.15;;;-2.80;99.90;;;;;;5054767;28;20249;-84
2022/03/12 03:07:45;;;;;;;19.95;13.23;;;-2.90;99.90;;;;;;5055309;28;20194;-84
2022/03/12 03:10:34;;;;;;;31.50;15.65;;;-2.80;99.90;;;;;;5044092;28;20382;-83
2022/03/12 03:13:17;;;;;;;18.67;12.35;;;-2.90;99.90;;;;;;5054256;28;20236;-85
2022/03/12 03:15:53;;;;;;;17.45;11.27;;;-2.90;99.90;;;;;;5049092;28;20247;-85
2022/03/12 03:18:24;;;;;;;21.85;13.13;;;-2.90;99.90;;;;;;5049444;28;20258;-85
2022/03/12 03:20:53;;;;;;;25.08;12.65;;;-2.80;99.90;;;;;;5054334;28;20209;-85
2022/03/12 03:23:26;;;;;;;26.13;13.18;;;-2.80;99.90;;;;;;5050703;28;20549;-85
2022/03/12 03:25:55;;;;;;;21.95;12.05;;;-2.80;99.90;;;;;;5056725;28;20198;-85
2022/03/12 03:28:23;;;;;;;16.25;11.65;;;-2.80;99.90;;;;;;5062075;28;20208;-85
2022/03/12 03:30:50;;;;;;;18.73;13.43;;;-2.90;99.90;;;;;;5056703;28;20227;-84
2022/03/12 03:33:21;;;;;;;24.15;12.23;;;-2.80;99.90;;;;;;5065457;28;20389;-85
2022/03/12 03:35:49;;;;;;;24.48;13.98;;;-2.90;99.90;;;;;;5060363;28;20513;-84
2022/03/12 03:38:18;;;;;;;22.58;12.95;;;-2.90;99.90;;;;;;5055812;28;20405;-86
2022/03/12 03:40:45;;;;;;;19.17;10.98;;;-2.80;99.90;;;;;;5064697;28;20200;-85
2022/03/12 03:43:20;;;;;;;23.55;11.15;;;-2.90;99.90;;;;;;5057159;28;20204;-84
2022/03/12 03:45:49;;;;;;;22.55;12.30;;;-2.70;99.90;;;;;;5055867;28;20200;-85
2022/03/12 03:48:19;;;;;;;20.88;10.60;;;-2.70;99.90;;;;;;5056950;28;20196;-84
2022/03/12 03:50:49;;;;;;;17.90;10.23;;;-2.80;99.90;;;;;;5060716;28;20428;-83
2022/03/12 03:53:18;;;;;;;23.05;13.40;;;-2.80;99.90;;;;;;5050515;28;20213;-85
2022/03/12 03:55:45;;;;;;;17.55;12.85;;;-2.90;99.90;;;;;;5044871;28;20441;-84
2022/03/12 03:58:15;;;;;;;19.02;11.10;;;-3.00;99.90;;;;;;5054962;28;20211;-86
2022/03/12 04:01:03;;;;;;;20.23;12.35;;;-2.90;99.90;;;;;;5058672;28;20267;-86
2022/03/12 04:03:34;;;;;;;22.65;13.35;;;-2.80;99.90;;;;;;5053296;28;20239;-85
2022/03/12 04:06:04;;;;;;;22.02;11.77;;;-2.80;99.90;;;;;;5049941;28;20193;-84
2022/03/12 04:08:33;;;;;;;14.68;11.43;;;-2.90;99.90;;;;;;5054732;28;20491;-85
2022/03/12 04:11:04;;;;;;;24.33;11.45;;;-2.90;99.90;;;;;;5057578;28;20217;-84
2022/03/12 04:13:33;;;;;;;18.27;11.73;;;-3.00;99.90;;;;;;5059536;28;20206;-84
2022/03/12 04:16:01;;;;;;;21.63;11.98;;;-3.20;99.90;;;;;;5050616;28;20545;-84
2022/03/12 04:18:31;;;;;;;22.52;12.75;;;-3.10;99.90;;;;;;5059056;28;20267;-83
2022/03/12 04:20:58;;;;;;;18.83;11.45;;;-3.10;99.90;;;;;;5061732;28;20430;-83
2022/03/12 04:23:27;;;;;;;26.55;13.52;;;-3.10;99.90;;;;;;5046572;28;20204;-83
2022/03/12 04:25:56;;;;;;;19.60;11.93;;;-3.10;99.90;;;;;;5057052;28;20200;-83
2022/03/12 04:28:27;;;;;;;21.90;12.07;;;-3.20;99.90;;;;;;5053301;28;20221;-84
2022/03/12 04:30:55;;;;;;;21.58;13.38;;;-3.20;99.90;;;;;;5058283;28;20219;-81
2022/03/12 04:33:22;;;;;;;17.60;10.95;;;-3.30;99.90;;;;;;5052505;28;20505;-84
2022/03/12 04:35:50;;;;;;;20.77;11.55;;;-3.20;99.90;;;;;;5068148;28;20196;-84
2022/03/12 04:38:18;;;;;;;20.65;11.00;;;-3.30;99.90;;;;;;5062814;28;20195;-83
2022/03/12 04:40:46;;;;;;;30.55;12.00;;;-3.30;99.90;;;;;;5055111;28;20204;-85
2022/03/12 04:43:14;;;;;;;18.60;11.98;;;-3.20;99.90;;;;;;5064890;28;20207;-83
2022/03/12 04:45:43;;;;;;;21.02;12.85;;;-3.30;99.90;;;;;;5051346;28;20243;-83
2022/03/12 04:48:14;;;;;;;19.15;11.40;;;-3.10;99.90;;;;;;5053672;28;20383;-82
2022/03/12 04:50:41;;;;;;;26.63;13.40;;;-3.10;99.90;;;;;;5062172;28;20208;-85
2022/03/12 04:53:10;;;;;;;18.48;10.90;;;-3.10;99.90;;;;;;5063497;28;20200;-84
2022/03/12 04:55:37;;;;;;;24.92;12.98;;;-3.10;99.90;;;;;;5052506;28;20193;-84
2022/03/12 04:58:07;;;;;;;19.40;11.88;;;-3.10;99.90;;;;;;5059726;28;20204;-83
2022/03/12 05:00:38;;;;;;;24.90;12.25;;;-3.30;99.90;;;;;;5059234;28;20227;-85
2022/03/12 05:03:14;;;;;;;22.42;12.27;;;-3.30;99.90;;;;;;5061192;28;20201;-85
2022/03/12 05:05:44;;;;;;;23.45;11.57;;;-3.10;99.90;;;;;;5061976;28;20219;-85
2022/03/12 05:08:21;;;;;;;16.15;11.57;;;-3.10;99.90;;;;;;5055609;28;20200;-83
2022/03/12 05:10:50;;;;;;;15.45;11.40;;;-3.20;99.90;;;;;;5063079;28;20200;-84
2022/03/12 05:13:22;;;;;;;16.73;11.07;;;-3.40;99.90;;;;;;5061182;28;20203;-83
2022/03/12 05:15:52;;;;;;;22.65;12.57;;;-3.40;99.90;;;;;;5063529;28;20196;-84
2022/03/12 05:18:23;;;;;;;16.73;11.75;;;-3.40;99.90;;;;;;5060003;28;20200;-82
2022/03/12 05:20:51;;;;;;;22.95;11.57;;;-3.40;99.90;;;;;;5049112;28;20232;-82
2022/03/12 05:23:19;;;;;;;21.00;12.15;;;-3.40;99.90;;;;;;5061976;28;20210;-82
2022/03/12 05:25:48;;;;;;;20.90;13.43;;;-3.30;99.90;;;;;;5059095;28;20539;-82
2022/03/12 05:28:23;;;;;;;21.00;12.88;;;-3.30;99.90;;;;;;5057022;28;20408;-84
2022/03/12 05:30:53;;;;;;;23.02;12.13;;;-3.30;99.90;;;;;;5043861;28;20197;-83
2022/03/12 05:33:21;;;;;;;27.15;13.25;;;-3.30;99.90;;;;;;5051456;28;20207;-83
2022/03/12 05:35:51;;;;;;;26.77;13.20;;;-3.20;99.90;;;;;;5052862;28;20204;-82
2022/03/12 05:38:19;;;;;;;22.70;12.70;;;-3.20;99.90;;;;;;5055204;28;20199;-83
2022/03/12 05:40:48;;;;;;;21.70;12.07;;;-3.30;99.90;;;;;;5049253;28;20213;-83
2022/03/12 05:43:17;;;;;;;27.45;15.93;;;-3.10;99.90;;;;;;5055397;28;20207;-82
2022/03/12 05:45:47;;;;;;;26.52;13.77;;;-3.30;99.90;;;;;;5058320;28;20283;-83
2022/03/12 05:48:16;;;;;;;24.08;12.75;;;-3.10;99.90;;;;;;5056438;28;20196;-83
2022/03/12 05:50:46;;;;;;;20.75;12.93;;;-3.20;99.90;;;;;;5062910;28;20213;-84
2022/03/12 05:53:15;;;;;;;29.48;14.25;;;-3.30;99.90;;;;;;5049894;28;20536;-84
2022/03/12 05:55:43;;;;;;;18.92;13.10;;;-3.20;99.90;;;;;;5061967;28;20199;-84
2022/03/12 05:58:12;;;;;;;24.02;13.82;;;-3.10;99.90;;;;;;5053347;28;20199;-84
2022/03/12 06:00:39;;;;;;;20.58;12.55;;;-3.00;99.90;;;;;;5063207;28;20591;-84
2022/03/12 06:03:10;;;;;;;23.88;12.93;;;-3.10;99.90;;;;;;5059693;28;20432;-85
2022/03/12 06:05:43;;;;;;;27.45;14.68;;;-3.00;99.90;;;;;;5052221;28;20247;-85
2022/03/12 06:08:18;;;;;;;21.50;11.43;;;-2.90;99.90;;;;;;5061730;28;20222;-84
2022/03/12 06:10:51;;;;;;;21.98;12.93;;;-2.90;99.90;;;;;;5057467;28;20229;-84
2022/03/12 06:13:20;;;;;;;30.08;16.95;;;-2.80;99.90;;;;;;5062537;28;20199;-85
2022/03/12 06:15:49;;;;;;;23.10;13.20;;;-2.90;99.90;;;;;;5051078;28;20199;-85
2022/03/12 06:18:17;;;;;;;21.55;14.43;;;-2.80;99.90;;;;;;5062193;28;20207;-84
2022/03/12 06:20:44;;;;;;;21.60;13.18;;;-2.70;99.90;;;;;;5053090;28;20201;-85
2022/03/12 06:23:11;;;;;;;26.70;15.25;;;-2.60;99.90;;;;;;5056595;28;20212;-84
2022/03/12 06:25:39;;;;;;;25.23;15.25;;;-2.50;99.90;;;;;;5054920;28;20228;-85
2022/03/12 06:28:06;;;;;;;33.55;15.60;;;-1.80;99.90;;;;;;5059934;28;20202;-85
2022/03/12 06:30:33;;;;;;;25.85;12.95;;;-0.40;99.90;;;;;;5049605;28;20390;-84
2022/03/12 06:33:04;;;;;;;26.38;14.27;;;0.50;99.90;;;;;;5052711;28;20797;-85
2022/03/12 06:35:31;;;;;;;20.08;12.02;;;1.10;99.90;;;;;;5054140;28;20439;-84
2022/03/12 06:37:58;;;;;;;19.23;11.73;;;1.50;99.90;;;;;;5051295;28;20288;-83
2022/03/12 06:40:29;;;;;;;28.65;13.30;;;2.00;99.90;;;;;;5056643;28;20236;-85
2022/03/12 06:42:59;;;;;;;23.05;12.18;;;2.50;99.90;;;;;;5057504;28;20193;-83
2022/03/12 06:45:28;;;;;;;23.13;14.40;;;3.10;99.30;;;;;;5053650;28;20231;-86
2022/03/12 06:47:56;;;;;;;24.02;13.65;;;3.00;98.20;;;;;;5061830;28;20250;-84
2022/03/12 06:50:25;;;;;;;19.27;12.35;;;2.60;98.60;;;;;;5051117;28;20218;-84
2022/03/12 06:52:54;;;;;;;20.17;13.25;;;2.30;98.70;;;;;;5049329;28;20198;-84
2022/03/12 06:55:23;;;;;;;26.80;13.80;;;2.30;99.40;;;;;;5057034;28;20211;-84
2022/03/12 06:57:53;;;;;;;23.92;11.90;;;2.40;99.10;;;;;;5050854;28;20223;-86
2022/03/12 07:00:26;;;;;;;24.80;13.00;;;2.20;98.30;;;;;;5063065;28;20224;-85
2022/03/12 07:02:55;;;;;;;33.67;17.25;;;2.30;99.30;;;;;;5037948;28;20485;-85
2022/03/12 07:05:22;;;;;;;25.38;14.52;;;3.00;98.20;;;;;;5057882;28;20543;-87
2022/03/12 07:07:50;;;;;;;21.55;14.05;;;3.50;96.10;;;;;;5051121;28;20350;-86
2022/03/12 07:10:18;;;;;;;24.90;15.30;;;4.00;95.50;;;;;;5062478;28;20202;-86
2022/03/12 07:12:46;;;;;;;25.90;14.35;;;4.90;94.30;;;;;;5065344;28;20245;-87
2022/03/12 07:15:17;;;;;;;32.35;15.68;;;5.80;90.60;;;;;;5063032;28;20483;-87
2022/03/12 07:17:45;;;;;;;24.02;15.13;;;5.10;90.60;;;;;;5065583;28;20199;-88
2022/03/12 07:20:15;;;;;;;22.65;11.77;;;5.10;90.20;;;;;;5064947;28;20290;-89
2022/03/12 07:22:43;;;;;;;23.85;13.82;;;5.00;90.10;;;;;;5063694;28;20259;-87
2022/03/12 07:25:12;;;;;;;21.73;12.95;;;5.20;89.10;;;;;;5049599;28;20552;-85
2022/03/12 07:27:40;;;;;;;22.05;13.13;;;5.00;89.10;;;;;;5045199;28;20199;-84
2022/03/12 07:30:10;;;;;;;26.00;14.60;;;5.40;89.20;;;;;;5056219;28;20187;-85
2022/03/12 07:32:39;;;;;;;28.85;16.02;;;5.90;86.40;;;;;;5059170;28;20207;-87
2022/03/12 07:35:07;;;;;;;26.13;14.55;;;5.60;86.30;;;;;;5053526;28;20441;-85
2022/03/12 07:37:35;;;;;;;22.25;14.07;;;5.70;85.30;;;;;;5063412;28;20204;-86
2022/03/12 07:40:04;;;;;;;20.20;12.65;;;6.20;84.50;;;;;;5078109;28;20203;-86
2022/03/12 07:42:33;;;;;;;36.78;15.95;;;6.10;82.90;;;;;;5072752;28;20192;-87
2022/03/12 07:45:01;;;;;;;21.08;14.95;;;7.10;82.50;;;;;;5070973;28;20279;-86
2022/03/12 07:47:28;;;;;;;28.85;14.95;;;8.90;75.40;;;;;;5072533;28;20196;-85
2022/03/12 07:49:56;;;;;;;21.77;13.90;;;9.10;72.40;;;;;;5070311;28;20193;-85
2022/03/12 07:52:24;;;;;;;27.88;14.68;;;10.40;69.50;;;;;;5071784;28;20212;-85
2022/03/12 07:54:51;;;;;;;26.33;15.35;;;10.70;64.90;;;;;;5053396;28;20252;-85
2022/03/12 07:57:28;;;;;;;22.67;13.50;;;10.20;66.30;;;;;;5051617;28;20202;-86
2022/03/12 07:59:59;;;;;;;19.50;13.80;;;9.90;65.90;;;;;;5031569;28;20219;-83
2022/03/12 08:02:31;;;;;;;30.35;16.95;;;11.00;62.70;;;;;;5067755;28;20423;-87
2022/03/12 08:05:29;;;;;;;19.00;14.27;;;11.70;60.80;;;;;;5105985;28;20628;-47
2022/03/12 08:07:56;;;;;;;20.83;14.05;;;11.30;59.00;;;;;;5097292;28;20521;-49
2022/03/12 08:10:23;;;;;;;23.67;15.73;;;10.50;61.10;;;;;;5094567;28;20586;-47
2022/03/12 08:12:53;;;;;;;23.65;14.15;;;11.70;59.60;;;;;;5097646;28;20202;-48
2022/03/12 08:15:20;;;;;;;22.83;14.05;;;12.40;57.00;;;;;;5091945;28;20213;-48
2022/03/12 08:17:48;;;;;;;21.92;14.73;;;12.10;56.30;;;;;;5089286;28;20232;-46
2022/03/12 08:20:19;;;;;;;24.05;12.55;;;12.20;56.30;;;;;;5093023;28;20287;-47
2022/03/12 08:22:46;;;;;;;25.27;14.00;;;11.60;56.40;;;;;;5092895;28;20385;-47
2022/03/12 08:25:14;;;;;;;17.65;13.25;;;11.40;57.30;;;;;;5092821;28;20260;-48
2022/03/12 08:27:42;;;;;;;28.75;14.75;;;11.40;56.90;;;;;;5089778;28;20198;-48
2022/03/12 08:30:10;;;;;;;22.30;13.98;;;10.80;58.20;;;;;;5089003;28;20555;-48
2022/03/12 08:32:39;;;;;;;20.95;12.45;;;11.70;56.60;;;;;;5090317;28;20250;-48
2022/03/12 08:35:09;;;;;;;21.30;14.02;;;12.00;55.30;;;;;;5092196;28;20200;-49
2022/03/12 08:37:36;;;;;;;20.77;12.93;;;12.10;55.70;;;;;;5089871;28;20199;-48
2022/03/12 08:40:06;;;;;;;21.55;14.25;;;12.00;56.00;;;;;;5081103;28;20217;-45
2022/03/12 08:42:34;;;;;;;21.52;14.77;;;12.50;55.30;;;;;;5078028;28;20199;-49
2022/03/12 08:45:02;;;;;;;25.75;14.35;;;11.70;55.00;;;;;;5090724;28;20240;-49
2022/03/12 08:47:29;;;;;;;20.45;13.50;;;11.30;57.20;;;;;;5089989;28;20525;-47
2022/03/12 08:49:57;;;;;;;22.95;13.27;;;11.10;56.70;;;;;;5090916;28;20223;-47
2022/03/12 08:52:25;;;;;;;23.20;13.68;;;12.00;55.40;;;;;;5092425;28;20213;-49
2022/03/12 08:54:52;;;;;;;20.83;14.57;;;12.40;54.30;;;;;;5092840;28;20222;-48
2022/03/12 08:57:20;;;;;;;23.30;14.32;;;12.20;54.00;;;;;;5089988;28;20277;-47
2022/03/12 08:59:47;;;;;;;19.08;12.43;;;11.60;55.00;;;;;;5089078;28;20513;-49
2022/03/12 09:02:15;;;;;;;20.05;14.13;;;12.10;54.90;;;;;;5094539;28;20194;-46
2022/03/12 09:04:42;;;;;;;30.33;18.13;;;12.90;53.00;;;;;;5089862;28;20222;-47
2022/03/12 09:07:09;;;;;;;61.97;34.85;;;11.90;53.60;;;;;;5087171;28;20198;-50
2022/03/12 09:09:37;;;;;;;47.85;24.10;;;11.80;54.90;;;;;;5088928;28;20219;-50
2022/03/12 09:12:05;;;;;;;40.75;20.48;;;11.40;54.80;;;;;;5094257;28;20244;-45
2022/03/12 09:14:35;;;;;;;29.77;14.75;;;11.20;56.20;;;;;;5088654;28;20245;-50
2022/03/12 09:17:05;;;;;;;50.60;23.00;;;11.70;55.20;;;;;;5079912;28;20211;-49
2022/03/12 09:19:32;;;;;;;27.73;17.52;;;11.80;54.70;;;;;;5068655;28;20219;-48
2022/03/12 09:22:00;;;;;;;23.70;13.32;;;12.60;54.60;;;;;;5074674;28;20402;-51
2022/03/12 09:24:27;;;;;;;25.15;13.80;;;13.30;53.10;;;;;;5075672;28;20218;-50
2022/03/12 09:26:54;;;;;;;30.05;13.90;;;13.20;52.50;;;;;;5085033;28;20229;-51
2022/03/12 09:29:22;;;;;;;27.88;14.57;;;12.00;52.60;;;;;;5090067;28;20214;-50
2022/03/12 09:31:49;;;;;;;24.80;13.68;;;10.90;54.80;;;;;;5083690;28;20203;-50
2022/03/12 09:34:16;;;;;;;19.08;11.60;;;10.90;55.70;;;;;;5086090;28;20225;-49
2022/03/12 09:36:44;;;;;;;26.08;15.05;;;10.60;56.90;;;;;;5082446;28;20547;-49
2022/03/12 09:39:11;;;;;;;26.50;16.10;;;9.60;58.00;;;;;;5077208;28;20197;-46
2022/03/12 09:41:40;;;;;;;27.65;15.82;;;9.10;59.30;;;;;;5077452;28;20209;-47
2022/03/12 09:44:08;;;;;;;22.50;14.00;;;8.40;60.30;;;;;;5077375;28;20225;-52
2022/03/12 09:46:36;;;;;;;20.58;14.70;;;8.10;62.20;;;;;;5078323;28;20251;-46
2022/03/12 09:49:04;;;;;;;21.13;13.45;;;7.80;62.80;;;;;;5077357;28;20441;-52
2022/03/12 09:51:31;;;;;;;28.63;11.93;;;7.20;63.50;;;;;;5075906;28;20211;-47
2022/03/12 09:53:59;;;;;;;28.08;14.35;;;6.80;65.70;;;;;;5076085;28;20204;-48
2022/03/12 09:56:26;;;;;;;19.33;13.20;;;6.60;67.50;;;;;;5075547;28;20202;-47
2022/03/12 09:58:54;;;;;;;20.90;12.02;;;6.60;68.60;;;;;;5076281;28;20218;-48
2022/03/12 10:01:21;;;;;;;18.25;12.48;;;6.60;66.60;;;;;;5075900;28;20234;-49
2022/03/12 10:03:49;;;;;;;19.77;12.35;;;6.50;67.40;;;;;;5074323;28;20263;-49
2022/03/12 10:06:17;;;;;;;20.95;12.13;;;6.30;67.50;;;;;;5076545;28;20203;-49
2022/03/12 10:08:45;;;;;;;27.45;13.30;;;6.30;67.80;;;;;;5077552;28;20245;-50
2022/03/12 10:11:13;;;;;;;16.88;11.93;;;6.40;68.00;;;;;;5077124;28;20222;-46
2022/03/12 10:13:41;;;;;;;19.95;11.63;;;6.30;67.80;;;;;;5076232;28;20195;-49
2022/03/12 10:16:09;;;;;;;19.60;12.98;;;6.40;67.50;;;;;;5076862;28;20195;-50
2022/03/12 10:18:36;;;;;;;22.33;11.93;;;6.50;67.70;;;;;;5077301;28;20198;-48
2022/03/12 10:21:04;;;;;;;25.85;12.50;;;6.60;67.80;;;;;;5076929;28;21251;-49
2022/03/12 10:23:33;;;;;;;17.23;11.90;;;6.60;67.60;;;;;;5074472;28;20517;-48
2022/03/12 10:26:00;;;;;;;21.77;12.40;;;6.70;67.80;;;;;;5075281;28;20195;-49
2022/03/12 10:28:32;;;;;;;15.00;10.80;;;6.80;66.10;;;;;;5076387;28;20207;-49
2022/03/12 10:31:03;;;;;;;20.80;13.73;;;6.90;66.80;;;;;;5076347;28;20222;-49
2022/03/12 10:33:31;;;;;;;16.88;10.40;;;7.10;67.50;;;;;;5074482;28;20198;-49
2022/03/12 10:36:13;;;;;;;22.10;13.48;;;7.00;65.00;;;;;;5074773;28;20200;-46
2022/03/12 10:38:50;;;;;;;19.63;11.40;;;6.80;64.80;;;;;;5076769;28;20225;-47
2022/03/12 10:41:17;;;;;;;21.80;12.10;;;6.80;66.60;;;;;;5073259;28;20272;-48
2022/03/12 10:43:50;;;;;;;18.42;11.60;;;6.70;66.20;;;;;;5073959;28;20200;-48
2022/03/12 10:46:28;;;;;;;24.92;12.13;;;6.60;66.60;;;;;;5080171;28;20203;-47
2022/03/12 10:49:00;;;;;;;26.67;11.90;;;6.50;66.30;;;;;;5078732;28;20382;-49
2022/03/12 10:51:36;;;;;;;21.00;12.70;;;6.50;67.20;;;;;;5077674;28;20198;-50
2022/03/12 10:54:07;;;;;;;16.58;8.43;;;6.50;66.30;;;;;;5076002;28;20199;-45
2022/03/12 10:56:47;;;;;;;17.73;11.25;;;6.30;64.90;;;;;;5076686;28;20416;-48
2022/03/12 10:59:19;;;;;;;17.42;11.60;;;6.30;66.70;;;;;;5076600;28;20198;-47
2022/03/12 11:01:56;;;;;;;19.58;9.73;;;6.30;66.70;;;;;;5074418;28;20200;-51
2022/03/12 11:04:27;;;;;;;11.82;8.68;;;6.20;65.30;;;;;;5076147;28;20289;-50
2022/03/12 11:06:57;;;;;;;16.05;10.15;;;6.30;66.70;;;;;;5076028;28;20432;-49
2022/03/12 11:09:39;;;;;;;17.10;11.10;;;6.40;66.10;;;;;;5072977;28;20409;-48
2022/03/12 11:12:35;;;;;;;15.40;9.40;;;6.60;66.50;;;;;;5075374;28;20195;-48
2022/03/12 11:15:16;;;;;;;15.70;9.40;;;6.90;63.90;;;;;;5079060;28;20274;-50
2022/03/12 11:17:51;;;;;;;14.15;9.15;;;7.00;63.60;;;;;;5072251;28;20279;-49
2022/03/12 11:20:28;;;;;;;11.25;8.65;;;6.90;61.20;;;;;;5068883;28;20418;-49
2022/03/12 11:23:13;;;;;;;13.02;8.90;;;6.90;62.50;;;;;;5075845;28;20222;-51
2022/03/12 11:25:56;;;;;;;10.02;7.80;;;6.80;60.70;;;;;;5072401;28;20219;-49
2022/03/12 11:28:25;;;;;;;14.30;8.57;;;6.80;60.50;;;;;;5070751;28;20252;-52
2022/03/12 11:30:52;;;;;;;17.35;9.23;;;6.80;61.80;;;;;;5077508;28;20269;-50
2022/03/12 11:33:21;;;;;;;14.82;7.63;;;6.80;61.60;;;;;;5076092;28;20199;-53
2022/03/12 11:36:00;;;;;;;18.52;9.02;;;6.60;61.60;;;;;;5073004;28;20199;-46
2022/03/12 11:38:28;;;;;;;14.90;7.32;;;6.80;62.40;;;;;;5080318;28;20198;-50
2022/03/12 11:41:23;;;;;;;13.43;7.68;;;6.80;61.50;;;;;;5080816;28;20263;-49
2022/03/12 11:43:50;;;;;;;10.32;6.82;;;6.90;61.40;;;;;;5080843;28;20199;-48
2022/03/12 11:46:17;;;;;;;11.20;7.05;;;7.00;61.00;;;;;;5079803;28;20531;-49
2022/03/12 11:48:45;;;;;;;10.82;6.50;;;7.10;59.70;;;;;;5091836;28;20222;-50
2022/03/12 11:51:16;;;;;;;13.52;7.28;;;7.00;59.70;;;;;;5100113;28;20557;-48
2022/03/12 11:53:45;;;;;;;9.55;6.57;;;7.00;58.90;;;;;;5100742;28;20248;-48
2022/03/12 11:56:17;;;;;;;10.23;7.00;;;7.00;59.50;;;;;;5101368;28;20226;-47
2022/03/12 11:58:45;;;;;;;12.02;6.82;;;6.90;58.50;;;;;;5089677;28;20221;-49
2022/03/12 12:01:20;;;;;;;9.85;7.18;;;6.90;58.20;;;;;;5080188;28;20215;-49
2022/03/12 12:03:50;;;;;;;16.55;9.00;;;7.00;58.30;;;;;;5080274;28;20237;-48
2022/03/12 12:06:17;;;;;;;10.57;6.25;;;7.00;58.40;;;;;;5081349;28;20222;-49
2022/03/12 12:08:45;;;;;;;9.00;5.22;;;7.10;58.40;;;;;;5083252;28;20195;-49
2022/03/12 12:11:13;;;;;;;10.02;6.47;;;7.20;58.60;;;;;;5084301;28;20277;-51
2022/03/12 12:13:44;;;;;;;13.52;6.78;;;7.30;58.30;;;;;;5084020;28;20452;-52
2022/03/12 12:16:15;;;;;;;8.15;7.07;;;7.50;58.40;;;;;;5075729;28;20479;-51
2022/03/12 12:18:43;;;;;;;6.57;4.80;;;7.50;57.80;;;;;;5082180;28;20206;-48
2022/03/12 12:21:18;;;;;;;10.63;6.38;;;7.40;56.90;;;;;;5079738;28;20212;-47
2022/03/12 12:23:49;;;;;;;16.58;6.25;;;7.40;58.10;;;;;;5078665;28;20198;-48
2022/03/12 12:26:16;;;;;;;10.23;6.63;;;7.50;58.40;;;;;;5079719;28;20668;-48
2022/03/12 12:28:51;;;;;;;6.90;5.60;;;7.70;58.70;;;;;;5080027;28;20244;-48
2022/03/12 12:31:22;;;;;;;8.73;4.60;;;7.80;57.30;;;;;;5080009;28;20214;-48
2022/03/12 12:33:49;;;;;;;6.75;5.40;;;7.70;57.10;;;;;;5069112;28;20192;-48
2022/03/12 12:36:18;;;;;;;8.27;4.80;;;7.80;56.90;;;;;;5074635;28;20521;-50
2022/03/12 12:39:08;;;;;;;7.45;5.45;;;7.80;56.70;;;;;;5076200;28;20200;-48
2022/03/12 12:41:56;;;;;;;7.82;4.85;;;7.70;56.20;;;;;;5091624;28;20509;-51
2022/03/12 12:44:43;;;;;;;10.55;5.97;;;7.80;56.00;;;;;;5100379;28;20236;-48
2022/03/12 12:47:20;;;;;;;9.80;5.50;;;7.90;56.40;;;;;;5100590;28;20199;-48
2022/03/12 12:49:53;;;;;;;10.70;5.32;;;7.90;56.30;;;;;;5100749;28;20221;-51